sensor_id;sensor_type;location;lat;lon;timestamp;pressure;altitude;pressure_sealevel;temperature;humidity
48267;BME280;34088;52.232;5.196;2023-09-19T00:01:12;100730.06;;;15.21;80.59
48267;BME280;34088;52.232;5.196;2023-09-19T00:03:37;100730.81;;;15.23;80.42
48267;BME280;34088;52.232;5.196;2023-09-19T00:06:04;100734.53;;;15.19;80.40
48267;BME280;34088;52.232;5.196;2023-09-19T00:08:35;100737.22;;;15.18;79.69
48267;BME280;34088;52.232;5.196;2023-09-19T00:11:00;100749.25;;;15.20;80.25
48267;BME280;34088;52.232;5.196;2023-09-19T00:13:31;100746.91;;;15.16;80.78
48267;BME280;34088;52.232;5.196;2023-09-19T00:15:57;100742.09;;;15.08;80.82
48267;BME280;34088;52.232;5.196;2023-09-19T00:18:24;100749.06;;;15.08;81.80
48267;BME280;34088;52.232;5.196;2023-09-19T00:33:07;100756.19;;;14.89;82.19
48267;BME280;34088;52.232;5.196;2023-09-19T00:35:33;100770.84;;;14.91;82.93
48267;BME280;34088;52.232;5.196;2023-09-19T00:37:58;100771.84;;;14.89;82.70
48267;BME280;34088;52.232;5.196;2023-09-19T00:40:24;100762.41;;;14.86;82.43
48267;BME280;34088;52.232;5.196;2023-09-19T00:42:49;100771.09;;;14.87;82.85
48267;BME280;34088;52.232;5.196;2023-09-19T00:45:16;100763.66;;;14.79;82.82
48267;BME280;34088;52.232;5.196;2023-09-19T00:47:44;100767.09;;;14.80;82.50
48267;BME280;34088;52.232;5.196;2023-09-19T00:50:11;100772.22;;;14.81;83.46
48267;BME280;34088;52.232;5.196;2023-09-19T00:52:40;100773.91;;;14.82;82.97
48267;BME280;34088;52.232;5.196;2023-09-19T00:55:11;100781.72;;;14.82;82.70
48267;BME280;34088;52.232;5.196;2023-09-19T00:57:39;100785.25;;;14.81;83.48
48267;BME280;34088;52.232;5.196;2023-09-19T01:00:05;100779.22;;;14.81;83.48
48267;BME280;34088;52.232;5.196;2023-09-19T01:02:34;100769.44;;;14.69;83.84
48267;BME280;34088;52.232;5.196;2023-09-19T01:05:00;100786.19;;;14.80;83.45
48267;BME280;34088;52.232;5.196;2023-09-19T01:07:26;100789.53;;;14.82;83.37
48267;BME280;34088;52.232;5.196;2023-09-19T01:09:51;100779.81;;;14.86;83.60
48267;BME280;34088;52.232;5.196;2023-09-19T01:12:29;100786.88;;;14.84;82.69
48267;BME280;34088;52.232;5.196;2023-09-19T01:15:01;100785.78;;;14.88;83.49
48267;BME280;34088;52.232;5.196;2023-09-19T01:17:34;100789.34;;;14.87;82.58
48267;BME280;34088;52.232;5.196;2023-09-19T01:20:18;100786.53;;;14.90;82.08
48267;BME280;34088;52.232;5.196;2023-09-19T01:25:51;100778.97;;;14.85;82.80
48267;BME280;34088;52.232;5.196;2023-09-19T01:31:04;100784.25;;;14.84;83.10
48267;BME280;34088;52.232;5.196;2023-09-19T01:33:59;100779.91;;;14.84;82.59
48267;BME280;34088;52.232;5.196;2023-09-19T01:36:29;100774.75;;;14.83;82.66
48267;BME280;34088;52.232;5.196;2023-09-19T01:38:57;100781.72;;;14.82;81.81
48267;BME280;34088;52.232;5.196;2023-09-19T01:41:57;100783.34;;;14.85;81.87
48267;BME280;34088;52.232;5.196;2023-09-19T01:44:40;100796.91;;;14.91;81.39
48267;BME280;34088;52.232;5.196;2023-09-19T01:52:48;100793.44;;;14.91;81.06
48267;BME280;34088;52.232;5.196;2023-09-19T01:55:15;100794.28;;;14.91;80.80
48267;BME280;34088;52.232;5.196;2023-09-19T01:57:49;100789.34;;;14.87;80.57
48267;BME280;34088;52.232;5.196;2023-09-19T02:00:18;100797.03;;;14.88;80.37
48267;BME280;34088;52.232;5.196;2023-09-19T02:02:47;100791.94;;;14.87;80.13
48267;BME280;34088;52.232;5.196;2023-09-19T02:05:13;100789.34;;;14.87;80.10
48267;BME280;34088;52.232;5.196;2023-09-19T02:07:39;100782.13;;;14.92;80.19
48267;BME280;34088;52.232;5.196;2023-09-19T02:10:06;100787.47;;;14.89;79.99
48267;BME280;34088;52.232;5.196;2023-09-19T02:12:32;100777.28;;;14.84;79.62
48267;BME280;34088;52.232;5.196;2023-09-19T02:14:58;100785.88;;;14.86;80.17
48267;BME280;34088;52.232;5.196;2023-09-19T02:17:24;100785.63;;;14.91;79.07
48267;BME280;34088;52.232;5.196;2023-09-19T02:19:52;100789.34;;;14.87;78.90
48267;BME280;34088;52.232;5.196;2023-09-19T02:22:17;100785.13;;;14.84;78.45
48267;BME280;34088;52.232;5.196;2023-09-19T02:24:43;100786.94;;;14.82;78.59
48267;BME280;34088;52.232;5.196;2023-09-19T02:27:08;100792.34;;;14.79;78.28
48267;BME280;34088;52.232;5.196;2023-09-19T02:29:33;100801.75;;;14.82;78.03
48267;BME280;34088;52.232;5.196;2023-09-19T02:32:00;100796.69;;;14.79;78.33
48267;BME280;34088;52.232;5.196;2023-09-19T02:34:27;100797.78;;;14.75;78.03
48267;BME280;34088;52.232;5.196;2023-09-19T02:36:52;100791.47;;;14.79;78.29
48267;BME280;34088;52.232;5.196;2023-09-19T02:39:20;100801.91;;;14.79;78.62
48267;BME280;34088;52.232;5.196;2023-09-19T02:41:45;100799.22;;;14.80;78.58
48267;BME280;34088;52.232;5.196;2023-09-19T02:44:11;100794.19;;;14.77;78.00
48267;BME280;34088;52.232;5.196;2023-09-19T02:46:36;100798.03;;;14.86;78.82
48267;BME280;34088;52.232;5.196;2023-09-19T02:49:03;100810.41;;;14.82;78.49
48267;BME280;34088;52.232;5.196;2023-09-19T02:51:32;100808.56;;;14.84;79.24
48267;BME280;34088;52.232;5.196;2023-09-19T02:54:00;100815.53;;;14.84;78.67
48267;BME280;34088;52.232;5.196;2023-09-19T02:56:26;100812.84;;;14.85;78.61
48267;BME280;34088;52.232;5.196;2023-09-19T02:58:51;100806.78;;;14.85;79.00
48267;BME280;34088;52.232;5.196;2023-09-19T03:01:16;100800.56;;;14.87;78.64
48267;BME280;34088;52.232;5.196;2023-09-19T03:03:44;100797.28;;;14.84;79.00
48267;BME280;34088;52.232;5.196;2023-09-19T03:06:11;100787.13;;;14.79;78.99
48267;BME280;34088;52.232;5.196;2023-09-19T03:08:39;100795.00;;;14.78;79.00
48267;BME280;34088;52.232;5.196;2023-09-19T03:11:09;100796.69;;;14.79;79.01
48267;BME280;34088;52.232;5.196;2023-09-19T03:13:36;100787.44;;;14.73;79.25
48267;BME280;34088;52.232;5.196;2023-09-19T03:16:06;100790.88;;;14.74;78.96
48267;BME280;34088;52.232;5.196;2023-09-19T03:18:33;100797.63;;;14.78;78.70
48267;BME280;34088;52.232;5.196;2023-09-19T03:20:59;100791.66;;;14.76;78.38
48267;BME280;34088;52.232;5.196;2023-09-19T03:23:28;100798.53;;;14.77;78.37
48267;BME280;34088;52.232;5.196;2023-09-19T03:25:54;100799.41;;;14.77;79.02
48267;BME280;34088;52.232;5.196;2023-09-19T03:28:21;100795.25;;;14.73;78.36
48267;BME280;34088;52.232;5.196;2023-09-19T03:30:56;100786.75;;;14.70;78.58
48267;BME280;34088;52.232;5.196;2023-09-19T03:33:21;100794.09;;;14.79;78.67
48267;BME280;34088;52.232;5.196;2023-09-19T03:35:51;100782.91;;;14.77;78.89
48267;BME280;34088;52.232;5.196;2023-09-19T03:38:17;100772.41;;;14.78;78.70
48267;BME280;34088;52.232;5.196;2023-09-19T03:40:43;100785.16;;;14.67;78.92
48267;BME280;34088;52.232;5.196;2023-09-19T03:43:08;100785.97;;;14.68;79.33
48267;BME280;34088;52.232;5.196;2023-09-19T03:45:34;100792.66;;;14.73;79.29
48267;BME280;34088;52.232;5.196;2023-09-19T03:47:59;100790.88;;;14.74;79.41
48267;BME280;34088;52.232;5.196;2023-09-19T03:50:24;100792.03;;;14.68;79.53
48267;BME280;34088;52.232;5.196;2023-09-19T03:52:49;100788.38;;;14.72;79.29
48267;BME280;34088;52.232;5.196;2023-09-19T03:55:14;100796.31;;;14.69;78.90
48267;BME280;34088;52.232;5.196;2023-09-19T03:57:40;100808.53;;;14.69;78.82
48267;BME280;34088;52.232;5.196;2023-09-19T04:00:05;100812.75;;;14.71;78.91
48267;BME280;34088;52.232;5.196;2023-09-19T04:02:36;100805.38;;;14.62;79.37
48267;BME280;34088;52.232;5.196;2023-09-19T04:05:03;100801.25;;;14.58;79.60
48267;BME280;34088;52.232;5.196;2023-09-19T04:07:28;100818.50;;;14.61;79.34
48267;BME280;34088;52.232;5.196;2023-09-19T04:09:54;100819.34;;;14.61;79.45
48267;BME280;34088;52.232;5.196;2023-09-19T04:12:20;100814.28;;;14.58;79.37
48267;BME280;34088;52.232;5.196;2023-09-19T04:14:45;100814.44;;;14.55;79.38
48267;BME280;34088;52.232;5.196;2023-09-19T04:17:10;100823.56;;;14.64;78.85
48267;BME280;34088;52.232;5.196;2023-09-19T04:19:36;100831.44;;;14.62;79.53
48267;BME280;34088;52.232;5.196;2023-09-19T04:22:02;100839.56;;;14.56;78.97
48267;BME280;34088;52.232;5.196;2023-09-19T04:24:28;100830.84;;;14.57;79.66
48267;BME280;34088;52.232;5.196;2023-09-19T04:26:53;100834.91;;;14.63;79.64
48267;BME280;34088;52.232;5.196;2023-09-19T04:29:19;100835.81;;;14.62;79.58
48267;BME280;34088;52.232;5.196;2023-09-19T04:31:45;100847.22;;;14.59;79.91
48267;BME280;34088;52.232;5.196;2023-09-19T04:34:11;100842.31;;;14.53;80.03
48267;BME280;34088;52.232;5.196;2023-09-19T04:36:42;100849.94;;;14.58;79.95
48267;BME280;34088;52.232;5.196;2023-09-19T04:39:08;100855.13;;;14.58;80.05
48267;BME280;34088;52.232;5.196;2023-09-19T04:41:35;100846.94;;;14.48;80.12
48267;BME280;34088;52.232;5.196;2023-09-19T04:44:04;100827.31;;;14.41;79.64
48267;BME280;34088;52.232;5.196;2023-09-19T04:46:30;100838.03;;;14.52;79.66
48267;BME280;34088;52.232;5.196;2023-09-19T04:48:55;100838.41;;;14.45;79.39
48267;BME280;34088;52.232;5.196;2023-09-19T04:51:20;100823.81;;;14.42;79.69
48267;BME280;34088;52.232;5.196;2023-09-19T04:53:46;100833.63;;;14.37;79.66
48267;BME280;34088;52.232;5.196;2023-09-19T04:56:11;100829.47;;;14.33;80.20
48267;BME280;34088;52.232;5.196;2023-09-19T04:58:36;100834.38;;;14.39;79.46
48267;BME280;34088;52.232;5.196;2023-09-19T05:01:01;100846.53;;;14.39;79.25
48267;BME280;34088;52.232;5.196;2023-09-19T05:03:28;100851.53;;;14.26;79.40
48267;BME280;34088;52.232;5.196;2023-09-19T05:05:53;100852.91;;;14.33;79.80
48267;BME280;34088;52.232;5.196;2023-09-19T05:08:18;100832.94;;;14.15;79.94
48267;BME280;34088;52.232;5.196;2023-09-19T05:10:43;100856.66;;;14.28;79.74
48267;BME280;34088;52.232;5.196;2023-09-19T05:13:09;100856.56;;;14.29;79.76
48267;BME280;34088;52.232;5.196;2023-09-19T05:15:34;100849.31;;;14.36;79.66
48267;BME280;34088;52.232;5.196;2023-09-19T05:18:01;100845.34;;;14.29;79.48
48267;BME280;34088;52.232;5.196;2023-09-19T05:20:26;100852.22;;;14.30;79.90
48267;BME280;34088;52.232;5.196;2023-09-19T05:23:05;100862.88;;;14.25;80.10
48267;BME280;34088;52.232;5.196;2023-09-19T05:25:33;100857.56;;;14.27;80.19
48267;BME280;34088;52.232;5.196;2023-09-19T05:28:03;100844.34;;;14.31;80.08
48267;BME280;34088;52.232;5.196;2023-09-19T05:30:31;100842.63;;;14.30;80.04
48267;BME280;34088;52.232;5.196;2023-09-19T05:32:56;100846.16;;;14.29;80.52
48267;BME280;34088;52.232;5.196;2023-09-19T05:35:22;100857.44;;;14.30;80.64
48267;BME280;34088;52.232;5.196;2023-09-19T05:37:48;100860.84;;;14.30;80.35
48267;BME280;34088;52.232;5.196;2023-09-19T05:40:18;100856.88;;;14.23;80.88
48267;BME280;34088;52.232;5.196;2023-09-19T05:42:44;100858.34;;;14.29;80.54
48267;BME280;34088;52.232;5.196;2023-09-19T05:45:09;100857.50;;;14.28;80.57
48267;BME280;34088;52.232;5.196;2023-09-19T05:47:37;100863.16;;;14.36;80.45
48267;BME280;34088;52.232;5.196;2023-09-19T05:50:02;100869.28;;;14.35;80.69
48267;BME280;34088;52.232;5.196;2023-09-19T05:52:28;100875.28;;;14.37;80.30
48267;BME280;34088;52.232;5.196;2023-09-19T05:54:54;100873.81;;;14.32;80.32
48267;BME280;34088;52.232;5.196;2023-09-19T05:57:21;100872.06;;;14.32;80.61
48267;BME280;34088;52.232;5.196;2023-09-19T05:59:47;100883.41;;;14.31;80.62
48267;BME280;34088;52.232;5.196;2023-09-19T06:02:14;100879.72;;;14.35;80.63
48267;BME280;34088;52.232;5.196;2023-09-19T06:04:40;100878.88;;;14.35;80.81
48267;BME280;34088;52.232;5.196;2023-09-19T06:07:06;100886.69;;;14.35;80.71
48267;BME280;34088;52.232;5.196;2023-09-19T06:09:31;100886.41;;;14.41;81.13
48267;BME280;34088;52.232;5.196;2023-09-19T06:11:57;100890.81;;;14.39;80.69
48267;BME280;34088;52.232;5.196;2023-09-19T06:14:23;100881.13;;;14.42;80.98
48267;BME280;34088;52.232;5.196;2023-09-19T06:16:49;100886.16;;;14.45;81.11
48267;BME280;34088;52.232;5.196;2023-09-19T06:19:15;100894.44;;;14.53;80.96
48267;BME280;34088;52.232;5.196;2023-09-19T06:21:40;100885.53;;;14.57;81.14
48267;BME280;34088;52.232;5.196;2023-09-19T06:24:05;100890.63;;;14.60;80.94
48267;BME280;34088;52.232;5.196;2023-09-19T06:26:31;100885.41;;;14.60;80.56
48267;BME280;34088;52.232;5.196;2023-09-19T06:28:57;100870.91;;;14.55;80.81
48267;BME280;34088;52.232;5.196;2023-09-19T06:31:22;100872.97;;;14.65;80.77
48267;BME280;34088;52.232;5.196;2023-09-19T06:33:51;100874.75;;;14.65;80.65
48267;BME280;34088;52.232;5.196;2023-09-19T06:36:16;100876.03;;;14.73;80.41
48267;BME280;34088;52.232;5.196;2023-09-19T06:38:42;100879.72;;;14.69;81.01
48267;BME280;34088;52.232;5.196;2023-09-19T06:41:07;100872.81;;;14.68;81.06
48267;BME280;34088;52.232;5.196;2023-09-19T06:43:34;100867.16;;;14.60;81.18
48267;BME280;34088;52.232;5.196;2023-09-19T06:46:00;100875.88;;;14.76;81.25
48267;BME280;34088;52.232;5.196;2023-09-19T06:48:26;100874.56;;;14.85;80.59
48267;BME280;34088;52.232;5.196;2023-09-19T06:50:58;100878.03;;;14.85;80.86
48267;BME280;34088;52.232;5.196;2023-09-19T06:53:28;100873.50;;;14.89;81.15
48267;BME280;34088;52.232;5.196;2023-09-19T06:55:56;100876.84;;;14.91;81.19
48267;BME280;34088;52.232;5.196;2023-09-19T06:58:22;100868.13;;;14.92;81.43
48267;BME280;34088;52.232;5.196;2023-09-19T07:00:47;100873.94;;;14.97;81.72
48267;BME280;34088;52.232;5.196;2023-09-19T07:03:13;100876.13;;;15.04;81.31
48267;BME280;34088;52.232;5.196;2023-09-19T07:05:40;100863.75;;;14.92;81.54
48267;BME280;34088;52.232;5.196;2023-09-19T07:08:06;100888.34;;;15.04;81.80
48267;BME280;34088;52.232;5.196;2023-09-19T07:10:32;100881.28;;;15.06;81.50
48267;BME280;34088;52.232;5.196;2023-09-19T07:13:05;100889.41;;;15.17;81.15
48267;BME280;34088;52.232;5.196;2023-09-19T07:15:36;100897.91;;;15.20;81.32
48267;BME280;34088;52.232;5.196;2023-09-19T07:18:05;100893.09;;;15.28;81.46
48267;BME280;34088;52.232;5.196;2023-09-19T07:20:31;100901.94;;;15.26;81.31
48267;BME280;34088;52.232;5.196;2023-09-19T07:22:58;100904.84;;;15.37;80.36
48267;BME280;34088;52.232;5.196;2023-09-19T07:25:29;100911.94;;;15.35;80.62
48267;BME280;34088;52.232;5.196;2023-09-19T07:27:56;100897.28;;;15.32;80.68
48267;BME280;34088;52.232;5.196;2023-09-19T07:30:21;100921.03;;;15.43;80.69
48267;BME280;34088;52.232;5.196;2023-09-19T07:32:47;100908.59;;;15.48;80.63
48267;BME280;34088;52.232;5.196;2023-09-19T07:35:12;100907.59;;;15.51;80.28
48267;BME280;34088;52.232;5.196;2023-09-19T07:37:37;100911.81;;;15.69;79.66
48267;BME280;34088;52.232;5.196;2023-09-19T07:40:03;100909.81;;;15.74;79.49
48267;BME280;34088;52.232;5.196;2023-09-19T07:42:35;100912.97;;;15.79;79.35
48267;BME280;34088;52.232;5.196;2023-09-19T07:45:07;100906.75;;;15.81;79.40
48267;BME280;34088;52.232;5.196;2023-09-19T07:47:33;100923.41;;;15.79;79.06
48267;BME280;34088;52.232;5.196;2023-09-19T07:49:58;100921.94;;;15.90;79.03
48267;BME280;34088;52.232;5.196;2023-09-19T07:52:24;100932.38;;;15.90;78.85
48267;BME280;34088;52.232;5.196;2023-09-19T07:54:50;100923.53;;;15.93;78.79
48267;BME280;34088;52.232;5.196;2023-09-19T07:57:15;100924.94;;;15.98;78.95
48267;BME280;34088;52.232;5.196;2023-09-19T07:59:41;100917.13;;;15.98;78.57
48267;BME280;34088;52.232;5.196;2023-09-19T08:02:07;100919.84;;;15.97;78.86
48267;BME280;34088;52.232;5.196;2023-09-19T08:04:34;100915.34;;;16.14;78.51
48267;BME280;34088;52.232;5.196;2023-09-19T08:07:00;100915.16;;;16.33;78.19
48267;BME280;34088;52.232;5.196;2023-09-19T08:09:26;100920.13;;;16.37;77.64
48267;BME280;34088;52.232;5.196;2023-09-19T08:11:51;100913.97;;;16.23;77.83
48267;BME280;34088;52.232;5.196;2023-09-19T08:14:16;100917.84;;;16.31;77.88
48267;BME280;34088;52.232;5.196;2023-09-19T08:16:42;100909.25;;;16.29;77.74
48267;BME280;34088;52.232;5.196;2023-09-19T08:19:10;100910.28;;;16.42;77.68
48267;BME280;34088;52.232;5.196;2023-09-19T08:21:35;100907.31;;;16.48;76.98
48267;BME280;34088;52.232;5.196;2023-09-19T08:24:01;100904.03;;;16.45;77.53
48267;BME280;34088;52.232;5.196;2023-09-19T08:26:29;100902.81;;;16.50;77.05
48267;BME280;34088;52.232;5.196;2023-09-19T08:28:56;100890.91;;;16.60;77.26
48267;BME280;34088;52.232;5.196;2023-09-19T08:31:21;100903.09;;;16.75;76.91
48267;BME280;34088;52.232;5.196;2023-09-19T08:33:47;100899.00;;;16.85;76.04
48267;BME280;34088;52.232;5.196;2023-09-19T08:36:14;100889.34;;;16.72;76.48
48267;BME280;34088;52.232;5.196;2023-09-19T08:38:40;100897.69;;;16.78;76.17
48267;BME280;34088;52.232;5.196;2023-09-19T08:41:06;100892.28;;;16.81;75.69
48267;BME280;34088;52.232;5.196;2023-09-19T08:43:32;100900.13;;;16.95;76.10
48267;BME280;34088;52.232;5.196;2023-09-19T08:46:08;100884.06;;;17.01;75.06
48267;BME280;34088;52.232;5.196;2023-09-19T08:48:34;100897.34;;;17.26;74.27
48267;BME280;34088;52.232;5.196;2023-09-19T08:51:07;100911.94;;;17.30;73.74
48267;BME280;34088;52.232;5.196;2023-09-19T08:53:47;100891.13;;;17.43;73.48
48267;BME280;34088;52.232;5.196;2023-09-19T08:56:17;100911.03;;;17.45;73.14
48267;BME280;34088;52.232;5.196;2023-09-19T08:58:47;100912.41;;;17.23;73.32
48267;BME280;34088;52.232;5.196;2023-09-19T09:01:15;100907.16;;;17.65;72.50
48267;BME280;34088;52.232;5.196;2023-09-19T09:03:42;100916.44;;;17.70;72.78
48267;BME280;34088;52.232;5.196;2023-09-19T09:06:12;100914.75;;;17.69;73.25
48267;BME280;34088;52.232;5.196;2023-09-19T09:08:41;100910.09;;;17.60;73.43
48267;BME280;34088;52.232;5.196;2023-09-19T09:11:08;100914.56;;;17.44;73.22
48267;BME280;34088;52.232;5.196;2023-09-19T09:13:35;100909.53;;;17.41;73.03
48267;BME280;34088;52.232;5.196;2023-09-19T09:16:01;100909.16;;;17.47;72.46
48267;BME280;34088;52.232;5.196;2023-09-19T09:18:28;100909.91;;;17.49;72.76
48267;BME280;34088;52.232;5.196;2023-09-19T09:20:55;100905.38;;;17.37;72.15
48267;BME280;34088;52.232;5.196;2023-09-19T09:23:21;100890.94;;;17.46;72.40
48267;BME280;34088;52.232;5.196;2023-09-19T09:28:21;100892.91;;;17.42;72.18
48267;BME280;34088;52.232;5.196;2023-09-19T09:30:46;100882.50;;;17.41;71.84
48267;BME280;34088;52.232;5.196;2023-09-19T09:33:13;100888.13;;;17.49;71.94
48267;BME280;34088;52.232;5.196;2023-09-19T09:38:24;100893.63;;;17.44;72.04
48267;BME280;34088;52.232;5.196;2023-09-19T09:40:58;100888.41;;;17.44;72.42
48267;BME280;34088;52.232;5.196;2023-09-19T09:43:43;100889.78;;;17.36;72.32
48267;BME280;34088;52.232;5.196;2023-09-19T09:46:19;100898.69;;;17.47;72.21
48267;BME280;34088;52.232;5.196;2023-09-19T09:51:33;100891.22;;;17.96;71.51
48267;BME280;34088;52.232;5.196;2023-09-19T09:54:29;100881.56;;;17.96;70.84
48267;BME280;34088;52.232;5.196;2023-09-19T09:57:05;100889.56;;;17.95;70.64
48267;BME280;34088;52.232;5.196;2023-09-19T09:59:53;100887.66;;;17.97;70.51
48267;BME280;34088;52.232;5.196;2023-09-19T10:02:26;100882.25;;;17.86;70.40
48267;BME280;34088;52.232;5.196;2023-09-19T10:04:55;100881.53;;;17.84;70.84
48267;BME280;34088;52.232;5.196;2023-09-19T10:07:26;100883.22;;;17.71;70.69
48267;BME280;34088;52.232;5.196;2023-09-19T10:09:53;100894.72;;;17.82;70.69
48267;BME280;34088;52.232;5.196;2023-09-19T10:12:24;100886.16;;;17.93;70.00
48267;BME280;34088;52.232;5.196;2023-09-19T10:14:53;100890.38;;;17.95;70.38
48267;BME280;34088;52.232;5.196;2023-09-19T10:17:20;100849.06;;;17.86;70.40
48267;BME280;34088;52.232;5.196;2023-09-19T10:19:55;100853.66;;;18.09;70.04
48267;BME280;34088;52.232;5.196;2023-09-19T10:22:27;100861.41;;;18.37;69.57
48267;BME280;34088;52.232;5.196;2023-09-19T10:24:56;100855.06;;;18.27;69.16
48267;BME280;34088;52.232;5.196;2023-09-19T10:27:25;100845.03;;;18.34;68.93
48267;BME280;34088;52.232;5.196;2023-09-19T10:29:52;100841.53;;;18.60;68.96
48267;BME280;34088;52.232;5.196;2023-09-19T10:32:22;100836.09;;;18.75;67.51
48267;BME280;34088;52.232;5.196;2023-09-19T10:34:49;100844.91;;;18.74;67.02
48267;BME280;34088;52.232;5.196;2023-09-19T10:37:15;100834.19;;;18.90;66.90
48267;BME280;34088;52.232;5.196;2023-09-19T10:39:46;100825.16;;;18.69;66.57
48267;BME280;34088;52.232;5.196;2023-09-19T10:42:17;100834.59;;;18.71;67.37
48267;BME280;34088;52.232;5.196;2023-09-19T10:44:45;100831.03;;;18.72;67.28
48267;BME280;34088;52.232;5.196;2023-09-19T10:47:12;100818.97;;;18.82;66.89
48267;BME280;34088;52.232;5.196;2023-09-19T10:49:45;100797.38;;;18.79;66.78
48267;BME280;34088;52.232;5.196;2023-09-19T10:52:15;100824.34;;;19.06;66.35
48267;BME280;34088;52.232;5.196;2023-09-19T10:54:46;100818.31;;;19.16;67.03
48267;BME280;34088;52.232;5.196;2023-09-19T10:57:22;100804.59;;;19.25;66.52
48267;BME280;34088;52.232;5.196;2023-09-19T11:00:08;100810.44;;;19.16;66.32
48267;BME280;34088;52.232;5.196;2023-09-19T11:06:01;100830.72;;;19.14;66.44
48267;BME280;34088;52.232;5.196;2023-09-19T11:08:27;100812.88;;;18.94;65.44
48267;BME280;34088;52.232;5.196;2023-09-19T11:10:52;100810.25;;;18.94;64.95
48267;BME280;34088;52.232;5.196;2023-09-19T11:13:28;100801.88;;;19.02;65.75
48267;BME280;34088;52.232;5.196;2023-09-19T11:26:45;100801.16;;;18.87;65.67
48267;BME280;34088;52.232;5.196;2023-09-19T11:29:30;100798.47;;;19.12;66.84
48267;BME280;34088;52.232;5.196;2023-09-19T11:31:57;100788.41;;;19.31;65.96
48267;BME280;34088;52.232;5.196;2023-09-19T11:40:06;100787.22;;;19.35;65.64
48267;BME280;34088;52.232;5.196;2023-09-19T11:42:41;100789.66;;;19.38;65.62
48267;BME280;34088;52.232;5.196;2023-09-19T11:45:07;100782.31;;;19.31;65.46
48267;BME280;34088;52.232;5.196;2023-09-19T11:47:33;100776.78;;;19.23;64.73
48267;BME280;34088;52.232;5.196;2023-09-19T11:50:01;100782.75;;;19.25;65.11
48267;BME280;34088;52.232;5.196;2023-09-19T11:52:28;100796.50;;;19.28;65.47
48267;BME280;34088;52.232;5.196;2023-09-19T11:55:00;100799.84;;;19.30;65.39
48267;BME280;34088;52.232;5.196;2023-09-19T11:57:27;100805.44;;;19.26;64.44
48267;BME280;34088;52.232;5.196;2023-09-19T11:59:55;100799.94;;;19.16;64.86
48267;BME280;34088;52.232;5.196;2023-09-19T12:02:38;100792.00;;;19.05;64.66
48267;BME280;34088;52.232;5.196;2023-09-19T12:05:05;100804.47;;;19.14;64.27
48267;BME280;34088;52.232;5.196;2023-09-19T12:07:42;100796.28;;;19.19;65.22
48267;BME280;34088;52.232;5.196;2023-09-19T12:10:07;100804.59;;;19.00;64.38
48267;BME280;34088;52.232;5.196;2023-09-19T12:12:36;100800.09;;;18.90;64.98
48267;BME280;34088;52.232;5.196;2023-09-19T12:15:02;100796.63;;;18.89;64.70
48267;BME280;34088;52.232;5.196;2023-09-19T12:17:38;100809.44;;;18.81;65.73
48267;BME280;34088;52.232;5.196;2023-09-19T12:20:09;100800.94;;;18.78;65.69
48267;BME280;34088;52.232;5.196;2023-09-19T12:22:45;100795.81;;;18.89;66.44
48267;BME280;34088;52.232;5.196;2023-09-19T12:25:12;100791.16;;;18.80;66.07
48267;BME280;34088;52.232;5.196;2023-09-19T12:27:47;100792.97;;;18.79;66.05
48267;BME280;34088;52.232;5.196;2023-09-19T12:30:13;100794.22;;;18.74;66.29
48267;BME280;34088;52.232;5.196;2023-09-19T12:32:40;100795.38;;;18.82;66.97
48267;BME280;34088;52.232;5.196;2023-09-19T12:35:06;100794.13;;;18.88;66.40
48267;BME280;34088;52.232;5.196;2023-09-19T12:37:37;100793.69;;;18.81;66.84
48267;BME280;34088;52.232;5.196;2023-09-19T12:40:09;100785.09;;;18.79;66.72
48267;BME280;34088;52.232;5.196;2023-09-19T12:42:47;100796.72;;;19.00;66.57
48267;BME280;34088;52.232;5.196;2023-09-19T12:45:13;100795.88;;;19.25;66.62
48267;BME280;34088;52.232;5.196;2023-09-19T12:47:40;100797.88;;;19.21;66.09
48267;BME280;34088;52.232;5.196;2023-09-19T12:50:25;100783.34;;;19.16;66.72
48267;BME280;34088;52.232;5.196;2023-09-19T12:52:55;100794.41;;;19.21;66.99
48267;BME280;34088;52.232;5.196;2023-09-19T12:58:13;100786.84;;;19.16;66.79
48267;BME280;34088;52.232;5.196;2023-09-19T13:00:42;100784.75;;;19.09;67.04
48267;BME280;34088;52.232;5.196;2023-09-19T13:08:30;100785.28;;;19.01;66.90
48267;BME280;34088;52.232;5.196;2023-09-19T13:11:17;100779.09;;;19.02;67.19
48267;BME280;34088;52.232;5.196;2023-09-19T13:14:29;100784.84;;;19.07;67.14
48267;BME280;34088;52.232;5.196;2023-09-19T13:19:39;100799.94;;;19.16;67.15
48267;BME280;34088;52.232;5.196;2023-09-19T13:22:43;100799.56;;;19.22;67.11
48267;BME280;34088;52.232;5.196;2023-09-19T13:25:19;100787.13;;;19.37;66.51
48267;BME280;34088;52.232;5.196;2023-09-19T13:27:49;100779.44;;;19.34;66.99
48267;BME280;34088;52.232;5.196;2023-09-19T13:30:20;100791.34;;;19.27;67.79
48267;BME280;34088;52.232;5.196;2023-09-19T13:32:46;100802.06;;;19.11;68.24
48267;BME280;34088;52.232;5.196;2023-09-19T13:35:15;100790.75;;;19.11;68.78
48267;BME280;34088;52.232;5.196;2023-09-19T13:37:42;100788.41;;;19.06;69.44
48267;BME280;34088;52.232;5.196;2023-09-19T13:40:12;100788.97;;;18.86;70.04
48267;BME280;34088;52.232;5.196;2023-09-19T13:42:39;100800.44;;;18.85;70.12
48267;BME280;34088;52.232;5.196;2023-09-19T13:45:05;100786.97;;;18.77;70.08
48267;BME280;34088;52.232;5.196;2023-09-19T13:47:31;100796.66;;;18.77;70.14
48267;BME280;34088;52.232;5.196;2023-09-19T13:50:01;100792.75;;;18.82;70.12
48267;BME280;34088;52.232;5.196;2023-09-19T13:52:29;100808.81;;;18.78;70.25
48267;BME280;34088;52.232;5.196;2023-09-19T13:54:55;100782.91;;;18.73;70.23
48267;BME280;34088;52.232;5.196;2023-09-19T13:57:25;100780.47;;;18.83;69.99
48267;BME280;34088;52.232;5.196;2023-09-19T13:59:51;100777.09;;;18.81;69.73